Latest Weather Observations for Westmere

IDV60801

Issued at 3:31 pm EDT Wednesday 1 April 2015 (issued every 30 minutes, with the page automatically refreshed every 10 minutes)

About weather observations | Map of weather stations | Latest weather observations for VIC | Other Formats
Station Details ID: 089112 Name: WESTMERE Lat: -37.71 Lon: 142.94 Height: 226.0 m
Data from the previous 72 hours. | See also: Recent months at Westmere
Date/Time
EDT
Temp
°C
App
Temp
°C
Dew
Point
Rel
Hum
%
Delta-T
°C
Wind Press
QNH
hPa
Press
MSL
hPa
Rain
since 9 am
mm
Dir
 
Spd
km/h
Gust
km/h
Spd
kts
Gust
kts
01/03:30pm 27.6 19.9 3.3 21 12.2 NNW 33 50 18 27 1012.9 1012.7 0.0
01/03:04pm 27.3 19.7 3.7 22 11.9 NNW 33 52 18 28 1013.1 1012.9 0.0
01/03:00pm 27.5 19.4 3.2 21 12.2 NNW 35 50 19 27 1013.2 1013.0 0.0
01/02:46pm 27.5 19.8 3.2 21 12.2 NNW 33 54 18 29 1013.4 1013.2 0.0
01/02:30pm 27.6 19.5 3.3 21 12.2 NNW 35 50 19 27 1013.8 1013.6 0.0
01/02:00pm 26.6 19.1 4.4 24 11.3 N 33 46 18 25 1014.2 1014.0 0.0
01/01:30pm 26.1 18.8 4.6 25 11.0 N 32 46 17 25 1014.9 1014.7 0.0
01/01:00pm 25.5 17.5 4.0 25 10.8 N 35 48 19 26 1015.2 1015.0 0.0
01/12:30pm 26.1 18.7 4.0 24 11.1 N 32 44 17 24 1015.5 1015.4 0.0
01/12:00pm 26.2 18.1 3.5 23 11.3 N 35 46 19 25 1015.7 1015.6 0.0
01/11:00am 24.4 16.9 4.7 28 9.9 N 33 44 18 24 1016.7 1016.6 0.0
01/10:30am 22.6 16.3 5.5 33 8.7 N 28 39 15 21 1017.3 1016.7 0.0
01/10:00am 21.7 16.3 6.4 37 7.8 N 24 33 13 18 1017.5 1016.9 0.0
01/09:30am 19.4 14.6 7.2 45 6.2 N 22 32 12 17 1017.5 1016.9 0.0
01/09:00am 18.6 14.2 7.4 48 5.7 N 20 28 11 15 1017.8 1017.3 0.0
01/08:30am 17.1 13.4 8.0 55 4.7 N 17 22 9 12 1018.0 1017.5 0.0
01/08:00am 13.9 10.7 7.0 63 3.4 NNE 13 15 7 8 1018.1 1017.6 0.0
01/07:30am 13.4 10.2 6.7 64 3.3 NNE 13 15 7 8 1018.1 1017.6 0.0
01/07:00am 13.5 10.1 6.1 61 3.6 N 13 15 7 8 1018.2 1017.7 0.0
01/06:30am 15.3 11.7 6.6 56 4.3 N 15 17 8 9 1018.2 1017.7 0.0
01/06:00am 15.3 11.9 6.1 54 4.5 N 13 17 7 9 1018.1 1017.6 0.0
01/05:30am 17.1 12.5 5.7 47 5.6 N 19 24 10 13 1018.2 1017.7 0.0
01/05:00am 16.6 12.8 5.9 49 5.2 N 15 19 8 10 1018.3 1017.8 0.0
01/04:30am 16.7 12.7 5.0 46 5.6 N 15 17 8 9 1018.7 1018.2 0.0
01/04:00am 17.6 13.7 5.5 45 5.9 N 15 20 8 11 1018.9 1018.4 0.0
01/03:30am 15.6 11.7 5.5 51 4.9 N 15 17 8 9 1019.3 1018.8 0.0
01/03:00am 12.6 9.4 5.1 60 3.5 NNE 11 13 6 7 1019.8 1019.3 0.0
01/02:30am 12.0 9.5 4.5 60 3.4 NNE 7 9 4 5 1020.2 1019.7 0.0
01/02:00am 11.1 8.5 4.3 63 3.1 NNE 7 9 4 5 1020.4 1019.9 0.0
01/01:30am 10.8 8.2 4.0 63 3.1 NNE 7 9 4 5 1020.6 1020.1 0.0
01/01:00am 11.2 8.6 4.0 61 3.2 NNE 7 9 4 5 1020.8 1020.3 0.0
01/12:30am 11.9 8.9 4.2 59 3.5 NNE 9 9 5 5 1021.2 1020.7 0.0
01/12:00am 11.9 9.5 4.2 59 3.5 NNE 6 7 3 4 1021.4 1020.9 0.0
 
Date/Time
EDT
Temp
°C
App
Temp
°C
Dew
Point
Rel
Hum
%
Delta-T
°C
Wind Press
QNH
hPa
Press
MSL
hPa
Rain
since 9 am
mm
Dir
 
Spd
km/h
Gust
km/h
Spd
kts
Gust
kts
31/11:30pm 11.5 9.0 3.8 59 3.5 NE 6 6 3 3 1021.5 1021.1 0.0
31/11:00pm 13.6 11.6 4.5 54 4.2 ENE 4 6 2 3 1021.8 1021.3 0.0
31/10:30pm 14.9 12.7 5.1 52 4.7 NE 6 7 3 4 1021.9 1021.4 0.0
31/10:00pm 15.6 13.9 5.8 52 4.7 SSE 4 7 2 4 1022.0 1021.5 0.0
31/09:30pm 14.7 12.4 4.7 51 4.7 E 6 6 3 3 1022.0 1021.5 0.0
31/09:00pm 16.6 15.5 5.3 47 5.5 CALM 0 0 0 0 1021.8 1021.3 0.0
31/08:30pm 18.4 16.5 6.6 46 5.9 N 6 7 3 4 1021.8 1021.3 0.0
31/08:00pm 19.3 17.4 5.0 39 7.0 NNW 4 9 2 5 1021.8 1021.3 0.0
31/07:30pm 23.1 21.9 6.4 34 8.6 WNW 2 6 1 3 1021.5 1021.1 0.0
31/07:00pm 25.1 24.3 6.3 30 9.8 CALM 0 0 0 0 1021.1 1020.6 0.0
31/06:30pm 26.3 24.7 6.4 28 10.5 SSW 4 6 2 3 1021.1 1020.6 0.0
31/06:00pm 26.5 24.6 6.5 28 10.5 SSW 6 7 3 4 1021.2 1020.7 0.0
31/05:30pm 26.9 24.9 6.9 28 10.7 SSW 7 9 4 5 1021.2 1020.7 0.0
31/05:00pm 26.9 24.9 6.9 28 10.6 WSW 7 13 4 7 1021.4 1020.9 0.0
31/04:30pm 27.3 25.2 6.7 27 11.0 WNW 7 15 4 8 1021.8 1021.3 0.0
31/04:00pm 27.7 24.8 6.5 26 11.2 W 11 20 6 11 1021.8 1021.3 0.0
31/03:30pm 27.1 25.2 6.5 27 10.9 N 6 9 3 5 1022.2 1021.7 0.0
31/03:00pm 26.4 23.5 6.4 28 10.5 NNW 11 19 6 10 1022.5 1022.0 0.0
31/02:30pm 26.3 24.0 7.4 30 10.1 NW 9 19 5 10 1023.0 1022.5 0.0
31/02:00pm 25.9 23.0 6.5 29 10.2 NW 11 22 6 12 1023.3 1022.8 0.0
31/01:30pm 24.1 21.1 5.9 31 9.4 WNW 11 20 6 11 1023.8 1023.3 0.0
31/01:00pm 23.7 20.5 6.9 34 8.8 NW 13 20 7 11 1024.4 1023.9 0.0
31/12:30pm 23.1 21.0 8.4 39 7.9 NW 9 17 5 9 1024.7 1024.2 0.0
31/12:00pm 22.6 21.4 9.7 44 7.0 N 6 11 3 6 1025.4 1025.0 0.0
31/11:30am 21.4 19.8 10.3 49 6.1 NE 9 15 5 8 1025.7 1025.3 0.0
31/11:00am 19.2 18.2 11.0 59 4.5 ENE 7 11 4 6 1025.8 1025.4 0.0
31/10:30am 16.5 15.4 10.8 69 3.1 ENE 7 9 4 5 1026.2 1025.8 0.0
31/10:00am 14.0 13.1 10.8 81 1.7 E 6 7 3 4 1026.7 1026.2 0.0
31/09:30am 10.3 10.0 10.0 98 0.2 E 2 4 1 2 1026.8 1026.3 0.0
31/09:00am 7.7 7.1 7.6 99 0.0 CALM 0 0 0 0 1026.9 1026.4 0.0
31/08:30am 5.5 4.5 5.4 99 0.0 CALM 0 0 0 0 1026.6 1026.1 0.0
31/08:00am 4.2 2.9 4.1 99 0.0 CALM 0 0 0 0 1026.4 1025.9 0.0
31/07:30am 3.8 2.4 3.7 99 0.0 CALM 0 0 0 0 1026.2 1025.8 0.0
31/07:00am 3.8 2.4 3.7 99 0.0 CALM 0 0 0 0 1025.9 1025.5 0.0
31/06:30am 3.9 2.5 3.8 99 0.0 CALM 0 0 0 0 1025.7 1025.3 0.0
31/06:00am 4.7 3.5 4.6 99 0.0 CALM 0 0 0 0 1025.4 1025.0 0.0
31/05:30am 4.6 3.3 4.3 98 0.1 CALM 0 0 0 0 1025.4 1025.0 0.0
31/05:00am 4.8 3.5 4.1 95 0.3 CALM 0 0 0 0 1025.4 1025.0 0.0
31/04:30am 5.1 3.9 4.4 95 0.3 CALM 0 0 0 0 1025.3 1024.9 0.0
31/04:00am 5.4 4.2 4.4 93 0.4 CALM 0 0 0 0 1025.4 1025.0 0.0
31/03:30am 6.5 5.6 5.9 96 0.3 CALM 0 0 0 0 1025.5 1025.1 0.0
31/03:00am 7.6 7.0 7.2 97 0.2 CALM 0 0 0 0 1025.7 1025.3 0.0
31/02:30am 7.0 6.1 5.9 93 0.5 CALM 0 0 0 0 1025.9 1025.5 0.0
31/02:00am 7.5 6.6 6.1 91 0.6 CALM 0 0 0 0 1026.0 1025.6 0.0
31/01:30am 8.1 7.3 6.7 91 0.7 CALM 0 0 0 0 1026.0 1025.6 0.0
31/01:00am 9.8 9.5 8.6 92 0.6 CALM 0 0 0 0 1026.2 1025.8 0.0
31/12:30am 9.2 8.6 7.2 87 1.0 CALM 0 0 0 0 1026.4 1025.9 0.0
31/12:00am 9.5 8.7 6.4 81 1.4 CALM 0 0 0 0 1026.6 1026.1 0.0
 
Date/Time
EDT
Temp
°C
App
Temp
°C
Dew
Point
Rel
Hum
%
Delta-T
°C
Wind Press
QNH
hPa
Press
MSL
hPa
Rain
since 9 am
mm
Dir
 
Spd
km/h
Gust
km/h
Spd
kts
Gust
kts
30/11:30pm 11.8 11.6 9.0 83 1.4 CALM 0 0 0 0 1026.7 1026.2 0.0
30/11:00pm 11.9 11.0 9.1 83 1.4 E 4 4 2 2 1026.7 1026.2 0.0
30/10:30pm 12.0 10.9 8.3 78 1.8 E 4 6 2 3 1026.6 1026.1 0.0
30/10:00pm 12.8 12.1 8.5 75 2.2 S 2 6 1 3 1026.6 1026.1 0.0
30/09:30pm 13.6 11.7 8.9 73 2.4 S 9 11 5 6 1026.4 1025.9 0.0
30/09:00pm 14.7 12.5 9.3 70 2.8 S 11 13 6 7 1026.2 1025.8 0.0
30/08:30pm 15.8 13.2 9.5 66 3.3 S 13 17 7 9 1025.9 1025.5 0.0
30/08:00pm 16.8 13.5 9.7 63 3.7 S 17 22 9 12 1025.6 1025.2 0.0
30/07:30pm 18.0 14.6 10.4 61 4.1 S 19 26 10 14 1025.2 1024.7 0.0
30/07:00pm 19.5 16.8 10.2 55 5.0 S 15 20 8 11 1024.9 1024.4 0.0
30/06:30pm 20.8 17.8 9.1 47 6.3 SSW 15 20 8 11 1024.5 1024.0 0.0
30/06:00pm 21.5 18.5 9.1 45 6.6 SW 15 20 8 11 1024.2 1023.7 0.0
30/05:30pm 22.0 19.8 9.5 45 6.8 SW 11 26 6 14 1023.9 1023.4 0.0
30/05:00pm 22.2 19.8 8.7 42 7.2 WSW 11 17 6 9 1023.8 1023.3 0.0
30/04:30pm 22.4 20.3 9.6 44 7.0 SSW 11 19 6 10 1023.8 1023.3 0.0
30/04:00pm 22.4 19.3 8.9 42 7.2 SW 15 26 8 14 1023.9 1023.4 0.0
30/03:30pm 22.1 19.4 8.9 43 7.1 WSW 13 20 7 11 1024.0 1023.5 0.0
30/03:00pm 22.1 19.4 8.9 43 7.1 WSW 13 17 7 9 1024.1 1023.6 0.0
30/02:30pm 22.3 19.7 9.5 44 7.0 WSW 13 24 7 13 1024.3 1023.8 0.0
30/02:00pm 21.4 18.3 8.7 44 6.7 SW 15 22 8 12 1024.6 1024.1 0.0
30/01:30pm 20.6 18.7 8.9 47 6.2 WSW 9 22 5 12 1024.8 1024.3 0.0
30/01:00pm 20.3 17.6 8.9 48 6.0 SW 13 20 7 11 1025.1 1024.6 0.0
30/12:30pm 20.4 17.7 9.0 48 6.1 WSW 13 30 7 16 1025.0 1024.5 0.0
30/12:00pm 19.5 18.0 8.5 49 5.8 SW 6 17 3 9 1025.2 1024.7 0.0
30/11:30am 19.1 17.8 9.3 53 5.2 W 6 13 3 7 1025.5 1025.1 0.0
30/11:00am 17.8 17.1 9.9 60 4.2 W 4 7 2 4 1025.6 1025.2 0.0
30/10:30am 16.4 15.3 9.8 65 3.5 SW 6 7 3 4 1025.5 1025.1 0.0
30/10:00am 16.6 16.1 10.7 68 3.2 NNE 4 6 2 3 1025.2 1024.7 0.0
30/09:30am 13.9 13.8 10.7 81 1.7 NNE 2 4 1 2 1025.0 1024.5 0.0
30/09:00am 11.1 10.7 9.7 91 0.7 NNE 2 4 1 2 1024.9 1024.4 0.0
30/08:30am 8.0 6.4 7.9 99 0.0 NNE 6 6 3 3 1024.6 1024.1 0.0
30/08:00am 5.1 4.0 5.0 99 0.0 CALM 0 0 0 0 1024.4 1023.9 0.0
30/07:30am 4.9 3.7 4.6 98 0.1 CALM 0 0 0 0 1024.0 1023.5 0.0
30/07:00am 6.5 5.7 6.4 99 0.0 CALM 0 0 0 0 1023.8 1023.3 0.0
30/06:30am 6.6 5.8 6.5 99 0.0 CALM 0 0 0 0 1023.6 1023.1 0.0
30/06:00am 6.3 5.4 6.0 98 0.1 CALM 0 0 0 0 1023.3 1022.8 0.0
30/05:30am 5.8 4.8 5.4 97 0.2 CALM 0 0 0 0 1023.2 1022.7 0.0
30/05:00am 5.9 4.8 5.3 96 0.3 CALM 0 0 0 0 1023.1 1022.6 0.0
30/04:30am 6.1 5.1 5.5 96 0.3 CALM 0 0 0 0 1023.0 1022.5 0.0
30/04:00am 6.9 6.1 6.3 96 0.3 CALM 0 0 0 0 1023.1 1022.6 0.0
30/03:30am 8.0 7.5 7.7 98 0.1 CALM 0 0 0 0 1023.2 1022.7 0.0
30/03:00am 7.0 6.2 6.4 96 0.3 CALM 0 0 0 0 1023.3 1022.8 0.0
30/02:30am 7.3 6.5 6.7 96 0.3 CALM 0 2 0 1 1023.4 1022.9 0.0
30/02:00am 7.2 5.3 6.5 95 0.3 NNE 6 6 3 3 1023.4 1022.9 0.0
30/01:30am 8.3 6.9 7.4 94 0.4 NNE 4 6 2 3 1023.7 1023.2 0.0
30/01:00am 8.9 7.3 8.0 94 0.4 NNE 6 7 3 4 1023.9 1023.4 0.0
30/12:30am 8.8 7.2 8.0 95 0.4 NE 6 6 3 3 1024.0 1023.5 0.0
30/12:00am 9.1 7.7 7.4 89 0.8 SSE 4 7 2 4 1024.2 1023.7 0.0
 
Date/Time
EDT
Temp
°C
App
Temp
°C
Dew
Point
Rel
Hum
%
Delta-T
°C
Wind Press
QNH
hPa
Press
MSL
hPa
Rain
since 9 am
mm
Dir
 
Spd
km/h
Gust
km/h
Spd
kts
Gust
kts
29/11:30pm 10.6 10.3 8.7 88 0.9 CALM 0 0 0 0 1024.2 1023.7 0.0
29/11:00pm 11.2 11.1 9.3 88 1.0 CALM 0 0 0 0 1024.3 1023.8 0.0
29/10:30pm 11.7 10.9 9.6 87 1.1 SSE 4 4 2 2 1024.3 1023.8 0.0
29/10:00pm 11.8 10.9 9.4 85 1.2 SSE 4 6 2 3 1024.1 1023.6 0.0
29/09:30pm 12.4 11.1 9.1 80 1.7 SSE 6 7 3 4 1023.8 1023.3 0.0
29/09:00pm 13.7 12.3 9.6 76 2.1 SSE 7 11 4 6 1023.5 1023.0 0.0
29/08:30pm 15.0 13.0 10.0 72 2.6 S 11 15 6 8 1023.0 1022.5 0.0
29/08:00pm 16.1 13.3 10.0 67 3.2 S 15 17 8 9 1022.6 1022.1 0.0
29/07:30pm 17.8 14.5 9.4 58 4.4 SSW 17 28 9 15 1022.2 1021.7 0.0
29/07:00pm 20.4 17.8 7.7 44 6.6 SW 11 15 6 8 1021.6 1021.2 0.0
29/06:30pm 21.2 18.2 7.8 42 7.0 SW 13 19 7 10 1021.3 1020.8 0.0
29/06:00pm 21.4 18.0 7.6 41 7.2 WSW 15 22 8 12 1021.1 1020.6 0.0
29/05:30pm 22.4 19.2 7.0 37 8.0 WSW 13 19 7 10 1020.9 1020.4 0.0
29/05:00pm 21.9 18.7 7.0 38 7.7 WSW 13 20 7 11 1020.8 1020.3 0.0
29/04:30pm 21.7 17.8 7.2 39 7.5 SW 17 26 9 14 1020.8 1020.3 0.0
29/04:00pm 22.1 19.0 7.1 38 7.8 WSW 13 19 7 10 1020.9 1020.4 0.0

Other Formats:

Comma delimited format used in spreadsheet applications
http://www.bom.gov.au/fwo/IDV60801/IDV60801.95840.axf

JavaScript Object Notation format (JSON) in row-major order
http://www.bom.gov.au/fwo/IDV60801/IDV60801.95840.json